Time;durP1;ratioP1;P1;durP2;ratioP2;P2;SDS_P1;SDS_P2;PMS_P1;PMS_P2;Temp;Humidity;BMP_temperature;BMP_pressure;BME280_temperature;BME280_humidity;BME280_pressure;Samples;Min_cycle;Max_cycle;Signal;HPM_P1;HPM_P2
2022/11/09 00:00:41;;;;;;;29.85;23.80;;;;;;;9.69;74.80;95503.69;5138243;27;20209;-73
2022/11/09 00:03:08;;;;;;;29.92;23.80;;;;;;;9.71;74.89;95504.19;5139219;27;20193;-73
2022/11/09 00:05:35;;;;;;;29.60;23.15;;;;;;;9.74;74.62;95501.56;5139124;27;20207;-73
2022/11/09 00:08:02;;;;;;;28.92;23.20;;;;;;;9.80;75.14;95502.13;5139269;27;20179;-73
2022/11/09 00:10:29;;;;;;;29.70;23.27;;;;;;;9.79;74.79;95506.03;5137376;27;20199;-73
2022/11/09 00:12:58;;;;;;;26.90;22.65;;;;;;;9.74;75.04;95511.78;5138270;27;20202;-73
2022/11/09 00:15:27;;;;;;;27.13;21.92;;;;;;;9.77;75.35;95508.34;5137884;27;20245;-73
2022/11/09 00:17:54;;;;;;;27.42;22.63;;;;;;;9.81;75.63;95507.34;5138369;27;20203;-73
2022/11/09 00:20:21;;;;;;;30.20;23.88;;;;;;;9.81;75.22;95509.28;5138944;27;20277;-73
2022/11/09 00:22:48;;;;;;;30.05;23.60;;;;;;;9.81;75.32;95506.53;5139369;27;20179;-73
2022/11/09 00:25:16;;;;;;;28.25;22.58;;;;;;;9.84;75.57;95511.34;5139396;27;20187;-72
2022/11/09 00:27:42;;;;;;;25.85;22.80;;;;;;;9.86;75.39;95507.13;5138893;27;20206;-73
2022/11/09 00:30:12;;;;;;;28.83;23.27;;;;;;;9.87;75.48;95508.72;5138659;27;20198;-72
2022/11/09 00:32:39;;;;;;;28.83;23.02;;;;;;;9.90;75.65;95507.25;5138462;27;20195;-72
2022/11/09 00:35:06;;;;;;;27.98;22.35;;;;;;;9.92;75.49;95509.69;5139487;27;20650;-72
2022/11/09 00:37:33;;;;;;;26.55;21.88;;;;;;;9.92;75.48;95507.72;5142390;27;20224;-72
2022/11/09 00:40:00;;;;;;;28.38;23.25;;;;;;;9.94;75.61;95510.94;5140776;27;20230;-72
2022/11/09 00:42:27;;;;;;;28.20;22.10;;;;;;;9.94;75.59;95501.88;5139830;27;20201;-72
2022/11/09 00:44:54;;;;;;;25.60;21.00;;;;;;;9.94;75.64;95499.91;5139160;27;20195;-72
2022/11/09 00:47:22;;;;;;;27.08;21.05;;;;;;;9.93;75.46;95498.31;5138689;27;20233;-72
2022/11/09 00:49:49;;;;;;;25.50;21.30;;;;;;;9.93;75.48;95501.06;5138969;27;20206;-72
2022/11/09 00:52:16;;;;;;;25.35;21.35;;;;;;;9.91;75.65;95503.34;5138595;27;20194;-72
2022/11/09 00:54:43;;;;;;;25.80;20.70;;;;;;;9.92;75.62;95507.72;5137710;27;20552;-72
2022/11/09 00:57:09;;;;;;;25.38;20.73;;;;;;;9.92;75.81;95504.97;5137719;27;20195;-72
2022/11/09 00:59:36;;;;;;;23.83;20.30;;;;;;;9.87;75.99;95505.16;5137470;27;20198;-72
2022/11/09 01:02:03;;;;;;;24.30;20.15;;;;;;;9.84;75.96;95503.91;5138370;27;20652;-72
2022/11/09 01:04:31;;;;;;;26.35;20.27;;;;;;;9.86;76.22;95506.31;5138118;27;20183;-72
2022/11/09 01:06:58;;;;;;;24.02;18.20;;;;;;;9.87;76.68;95499.66;5138095;27;20234;-72
2022/11/09 01:09:25;;;;;;;20.77;18.52;;;;;;;9.84;76.59;95503.91;5137418;27;20202;-72
2022/11/09 01:11:53;;;;;;;19.63;16.88;;;;;;;9.85;76.91;95508.25;5138380;27;20220;-73
2022/11/09 01:14:20;;;;;;;19.95;17.05;;;;;;;9.88;77.01;95506.78;5137048;27;20210;-73
2022/11/09 01:16:47;;;;;;;20.08;16.85;;;;;;;9.89;76.80;95505.63;5137437;27;20626;-73
2022/11/09 01:19:16;;;;;;;19.67;16.33;;;;;;;9.88;76.39;95504.84;5136790;27;20195;-73
2022/11/09 01:21:44;;;;;;;18.50;16.45;;;;;;;9.87;76.62;95502.41;5136605;27;20206;-73
2022/11/09 01:24:11;;;;;;;19.25;15.90;;;;;;;9.88;76.65;95501.28;5137626;27;20191;-73
2022/11/09 01:26:38;;;;;;;20.60;16.42;;;;;;;9.84;76.51;95500.31;5137470;27;20211;-72
2022/11/09 01:29:05;;;;;;;18.58;15.68;;;;;;;9.82;76.59;95495.16;5137600;27;20187;-72
2022/11/09 01:31:32;;;;;;;18.15;16.13;;;;;;;9.83;76.83;95494.00;5136946;27;20520;-72
2022/11/09 01:34:02;;;;;;;19.13;15.75;;;;;;;9.86;77.10;95492.53;5137592;27;20266;-72
2022/11/09 01:36:31;;;;;;;19.27;16.58;;;;;;;9.88;76.56;95495.78;5136309;27;20195;-72
2022/11/09 01:39:00;;;;;;;18.67;15.73;;;;;;;9.87;76.82;95491.38;5136345;27;20205;-72
2022/11/09 01:41:29;;;;;;;18.73;16.00;;;;;;;9.87;76.93;95488.63;5136003;27;20234;-73
2022/11/09 01:44:08;;;;;;;19.75;16.35;;;;;;;9.89;77.09;95483.59;5137474;27;20183;-73
2022/11/09 01:46:40;;;;;;;18.80;16.80;;;;;;;9.87;76.54;95488.63;5137334;27;20202;-72
2022/11/09 01:49:13;;;;;;;19.83;17.02;;;;;;;9.83;76.55;95483.00;5137681;27;20198;-73
2022/11/09 01:51:44;;;;;;;19.05;16.38;;;;;;;9.82;76.29;95486.09;5137043;27;20199;-73
2022/11/09 01:54:18;;;;;;;16.75;14.98;;;;;;;9.75;76.26;95486.63;5137367;27;20195;-73
2022/11/09 01:56:51;;;;;;;17.88;15.98;;;;;;;9.70;76.13;95480.53;5136844;27;20190;-73
2022/11/09 01:59:22;;;;;;;20.00;16.17;;;;;;;9.66;76.43;95483.16;5136869;27;20179;-73
2022/11/09 02:01:50;;;;;;;20.27;16.30;;;;;;;9.62;76.23;95487.72;5135978;27;20203;-73
2022/11/09 02:04:20;;;;;;;19.13;16.20;;;;;;;9.56;76.36;95489.88;5136400;27;20206;-73
2022/11/09 02:06:49;;;;;;;19.38;16.65;;;;;;;9.56;76.40;95486.31;5137159;27;20206;-73
2022/11/09 02:09:25;;;;;;;18.35;16.30;;;;;;;9.57;76.93;95485.16;5136307;27;20199;-73
2022/11/09 02:11:54;;;;;;;19.60;16.38;;;;;;;9.55;76.79;95484.69;5136427;27;20607;-73
2022/11/09 02:14:23;;;;;;;20.92;16.83;;;;;;;9.53;76.74;95484.22;5135728;27;20202;-73
2022/11/09 02:16:51;;;;;;;19.95;16.80;;;;;;;9.50;76.52;95488.44;5137420;27;20183;-73
2022/11/09 02:19:19;;;;;;;18.42;16.05;;;;;;;9.48;76.04;95495.47;5138060;27;20618;-73
2022/11/09 02:21:47;;;;;;;18.85;15.75;;;;;;;9.44;76.21;95495.31;5136962;27;20607;-73
2022/11/09 02:24:17;;;;;;;18.95;15.63;;;;;;;9.37;76.29;95493.09;5136207;27;20191;-73
2022/11/09 02:26:48;;;;;;;19.40;17.10;;;;;;;9.34;76.47;95496.50;5135646;27;20216;-73
2022/11/09 02:29:19;;;;;;;17.75;15.88;;;;;;;9.36;76.79;95493.41;5135889;27;20195;-73
2022/11/09 02:31:49;;;;;;;18.02;15.35;;;;;;;9.34;76.73;95493.75;5136344;27;20630;-73
2022/11/09 02:34:18;;;;;;;19.73;14.82;;;;;;;9.28;76.27;95494.28;5136680;27;20191;-73
2022/11/09 02:36:45;;;;;;;16.77;14.15;;;;;;;9.26;76.52;95493.81;5137047;27;20194;-73
2022/11/09 02:39:17;;;;;;;16.80;14.65;;;;;;;9.22;76.31;95488.16;5135862;27;20206;-73
2022/11/09 02:41:50;;;;;;;16.83;14.90;;;;;;;9.19;76.22;95494.34;5137304;27;20203;-73
2022/11/09 02:44:19;;;;;;;17.20;15.27;;;;;;;9.19;76.01;95497.09;5136138;27;20202;-73
2022/11/09 02:46:46;;;;;;;18.73;15.15;;;;;;;9.14;75.83;95495.34;5136239;27;20202;-73
2022/11/09 02:49:13;;;;;;;20.15;16.98;;;;;;;9.05;76.06;95491.84;5136368;27;20179;-73
2022/11/09 02:51:45;;;;;;;19.20;16.42;;;;;;;9.04;76.59;95494.91;5135482;28;20210;-73
2022/11/09 02:54:17;;;;;;;19.67;16.45;;;;;;;9.04;76.62;95494.91;5135667;28;20231;-73
2022/11/09 02:56:46;;;;;;;18.85;16.17;;;;;;;9.06;76.91;95498.16;5136289;27;20179;-73
2022/11/09 02:59:14;;;;;;;22.23;17.30;;;;;;;9.09;76.89;95500.25;5136263;27;20240;-73
2022/11/09 03:01:43;;;;;;;20.65;17.10;;;;;;;9.04;76.15;95492.16;5132628;28;20213;-73
2022/11/09 03:04:11;;;;;;;20.00;17.05;;;;;;;8.95;75.73;95494.16;5136265;27;20198;-73
2022/11/09 03:06:39;;;;;;;18.13;16.15;;;;;;;8.89;76.17;95499.84;5135253;28;20227;-73
2022/11/09 03:09:10;;;;;;;18.73;15.65;;;;;;;8.93;76.06;95502.75;5135239;28;20195;-73
2022/11/09 03:11:40;;;;;;;17.80;15.90;;;;;;;8.92;76.15;95509.38;5136473;27;20183;-73
2022/11/09 03:14:09;;;;;;;20.13;15.82;;;;;;;8.91;75.83;95505.03;5135712;28;20183;-73
2022/11/09 03:16:36;;;;;;;20.58;17.02;;;;;;;8.87;75.63;95512.34;5135468;28;20202;-73
2022/11/09 03:19:05;;;;;;;20.15;16.17;;;;;;;8.83;75.74;95509.44;5135352;28;20194;-73
2022/11/09 03:21:33;;;;;;;18.95;16.23;;;;;;;8.84;76.15;95508.28;5136137;27;20255;-73
2022/11/09 03:24:01;;;;;;;20.40;17.75;;;;;;;8.80;75.51;95509.28;5136510;28;20541;-73
2022/11/09 03:26:28;;;;;;;20.98;17.83;;;;;;;8.74;75.17;95496.84;5136812;28;20215;-73
2022/11/09 03:28:57;;;;;;;21.23;18.92;;;;;;;8.74;75.30;95505.09;5136599;27;20183;-73
2022/11/09 03:31:25;;;;;;;19.60;17.48;;;;;;;8.71;75.34;95506.56;5136546;27;20223;-73
2022/11/09 03:33:54;;;;;;;25.10;17.77;;;;;;;8.65;75.14;95500.47;5135650;28;20206;-73
2022/11/09 03:36:22;;;;;;;19.75;16.63;;;;;;;8.58;75.51;95513.09;5135327;28;20191;-73
2022/11/09 03:38:51;;;;;;;18.90;16.45;;;;;;;8.54;75.95;95512.16;5135837;28;20207;-73
2022/11/09 03:41:19;;;;;;;21.40;17.65;;;;;;;8.57;75.81;95511.47;5135475;27;20237;-73
2022/11/09 03:43:47;;;;;;;21.75;16.58;;;;;;;8.51;75.58;95504.56;5135539;27;20183;-72
2022/11/09 03:46:28;;;;;;;21.17;16.77;;;;;;;8.52;76.02;95509.72;5138059;27;20179;-72
2022/11/09 03:48:57;;;;;;;21.70;18.55;;;;;;;8.54;75.96;95514.91;5139873;27;20198;-73
2022/11/09 03:51:25;;;;;;;20.55;17.80;;;;;;;8.50;75.56;95516.69;5139117;27;20199;-73
2022/11/09 03:53:53;;;;;;;21.02;17.70;;;;;;;8.42;75.52;95515.56;5140233;27;20179;-73
2022/11/09 03:56:21;;;;;;;22.20;17.77;;;;;;;8.43;75.73;95515.25;5139899;27;20194;-73
2022/11/09 03:58:52;;;;;;;22.75;18.33;;;;;;;8.41;75.44;95509.28;5139561;27;20180;-73
2022/11/09 04:01:21;;;;;;;20.50;17.67;;;;;;;8.38;75.82;95511.88;5138236;27;20222;-73
2022/11/09 04:03:49;;;;;;;19.95;17.30;;;;;;;8.42;75.71;95515.56;5139289;27;20187;-73
2022/11/09 04:06:17;;;;;;;21.58;18.42;;;;;;;8.43;75.70;95515.25;5139457;27;20179;-73
2022/11/09 04:08:45;;;;;;;26.35;22.33;;;;;;;8.41;75.45;95517.50;5138298;27;20199;-73
2022/11/09 04:11:13;;;;;;;24.27;20.85;;;;;;;8.40;75.23;95512.34;5139358;27;20206;-73
2022/11/09 04:13:43;;;;;;;24.95;20.27;;;;;;;8.37;75.27;95513.81;5138216;27;20198;-74
2022/11/09 04:16:11;;;;;;;22.55;19.95;;;;;;;8.34;75.35;95513.63;5138599;27;20205;-73
2022/11/09 04:18:39;;;;;;;22.40;19.95;;;;;;;8.33;75.40;95517.53;5138057;27;20207;-71
2022/11/09 04:21:07;;;;;;;21.92;18.42;;;;;;;8.35;75.52;95518.81;5138732;27;20206;-72
2022/11/09 04:23:35;;;;;;;23.15;18.60;;;;;;;8.28;74.73;95515.75;5137745;27;20191;-73
2022/11/09 04:26:03;;;;;;;23.65;18.85;;;;;;;8.21;75.24;95518.19;5138219;27;20202;-72
2022/11/09 04:28:31;;;;;;;23.98;19.65;;;;;;;8.21;75.62;95523.69;5138622;27;20662;-72
2022/11/09 04:31:00;;;;;;;24.40;19.98;;;;;;;8.24;75.76;95514.78;5138404;27;20197;-72
2022/11/09 04:33:29;;;;;;;26.58;20.55;;;;;;;8.25;75.56;95510.91;5138132;27;20194;-72
2022/11/09 04:36:03;;;;;;;24.35;19.98;;;;;;;8.23;75.19;95515.13;5138767;27;20194;-72
2022/11/09 04:38:31;;;;;;;22.80;18.40;;;;;;;8.22;75.33;95516.25;5137748;27;20198;-73
2022/11/09 04:41:01;;;;;;;21.45;18.17;;;;;;;8.19;75.38;95513.00;5137885;27;20281;-73
2022/11/09 04:43:31;;;;;;;22.98;17.95;;;;;;;8.19;75.24;95515.75;5137553;27;20227;-72
2022/11/09 04:46:03;;;;;;;24.00;18.25;;;;;;;8.19;74.98;95517.72;5138139;27;20611;-72
2022/11/09 04:48:31;;;;;;;23.58;19.08;;;;;;;8.17;74.92;95518.06;5137566;27;20219;-73
2022/11/09 04:51:01;;;;;;;24.45;21.00;;;;;;;8.17;74.88;95525.50;5138482;27;20190;-72
2022/11/09 04:53:30;;;;;;;25.63;19.42;;;;;;;8.15;74.92;95520.31;5138637;27;20199;-73
2022/11/09 04:55:59;;;;;;;24.20;20.13;;;;;;;8.11;74.85;95530.34;5137723;27;20183;-72
2022/11/09 04:58:29;;;;;;;23.98;20.00;;;;;;;8.11;75.22;95524.84;5137947;27;20182;-72
2022/11/09 05:01:07;;;;;;;24.35;18.58;;;;;;;8.15;75.47;95525.00;5138097;27;20187;-72
2022/11/09 05:03:35;;;;;;;23.95;19.00;;;;;;;8.17;75.22;95529.03;5137751;27;20193;-72
2022/11/09 05:06:30;;;;;;;24.75;19.60;;;;;;;8.18;75.28;95532.59;5138173;27;20214;-72
2022/11/09 05:08:56;;;;;;;26.00;20.35;;;;;;;8.14;74.88;95532.44;5137729;27;20191;-73
2022/11/09 05:11:24;;;;;;;31.45;23.73;;;;;;;8.12;74.93;95526.44;5137977;27;20209;-72
2022/11/09 05:13:53;;;;;;;28.38;21.85;;;;;;;8.08;75.01;95527.44;5137853;27;20175;-72
2022/11/09 05:16:22;;;;;;;29.92;21.33;;;;;;;8.08;74.96;95536.47;5136965;27;20203;-72
2022/11/09 05:18:50;;;;;;;29.58;21.55;;;;;;;8.06;74.80;95536.00;5136851;27;20226;-72
2022/11/09 05:21:20;;;;;;;26.88;21.45;;;;;;;8.06;75.26;95543.41;5136835;27;20226;-72
2022/11/09 05:23:59;;;;;;;31.38;25.42;;;;;;;8.08;75.31;95544.72;5137689;27;20199;-70
2022/11/09 05:26:29;;;;;;;33.45;26.17;;;;;;;8.06;75.35;95541.50;5137208;27;20175;-70
2022/11/09 05:29:00;;;;;;;30.77;24.92;;;;;;;8.08;75.53;95547.47;5137064;27;20199;-71
2022/11/09 05:31:28;;;;;;;28.00;24.25;;;;;;;8.04;75.32;95549.25;5137637;27;20191;-71
2022/11/09 05:33:58;;;;;;;30.27;22.45;;;;;;;8.02;75.54;95548.75;5137501;27;20179;-71
2022/11/09 05:36:29;;;;;;;27.42;22.05;;;;;;;8.08;75.50;95549.41;5137000;27;20187;-70
2022/11/09 05:38:57;;;;;;;29.67;23.10;;;;;;;8.14;75.73;95551.66;5138057;27;20206;-71
2022/11/09 05:41:26;;;;;;;26.40;23.27;;;;;;;8.16;75.63;95549.38;5137186;27;20564;-73
2022/11/09 05:43:54;;;;;;;31.58;23.38;;;;;;;8.22;75.72;95546.47;5136779;27;20229;-70
2022/11/09 05:46:25;;;;;;;27.55;23.30;;;;;;;8.23;75.90;95554.38;5136157;27;20199;-70
2022/11/09 05:48:52;;;;;;;30.92;22.15;;;;;;;8.22;75.69;95557.47;5136429;27;20301;-69
2022/11/09 05:51:20;;;;;;;31.88;24.08;;;;;;;8.22;75.75;95557.47;5137137;27;20198;-70
2022/11/09 05:53:53;;;;;;;32.60;23.30;;;;;;;8.27;75.78;95562.78;5136916;27;20194;-71
2022/11/09 05:56:21;;;;;;;29.85;23.60;;;;;;;8.31;76.00;95567.31;5137407;27;20238;-70
2022/11/09 05:58:51;;;;;;;30.35;24.30;;;;;;;8.35;76.01;95565.53;5135661;27;20210;-70
2022/11/09 06:01:20;;;;;;;32.55;25.20;;;;;;;8.37;75.90;95568.78;5136999;27;20187;-70
2022/11/09 06:03:49;;;;;;;35.65;26.30;;;;;;;8.37;76.05;95566.03;5135649;27;20195;-70
2022/11/09 06:06:17;;;;;;;33.85;25.38;;;;;;;8.39;76.22;95576.72;5136051;27;20199;-70
2022/11/09 06:08:46;;;;;;;33.78;25.13;;;;;;;8.40;76.02;95583.81;5136119;27;20207;-71
2022/11/09 06:11:18;;;;;;;30.92;24.42;;;;;;;8.39;76.30;95582.22;5136287;27;20285;-70
2022/11/09 06:13:46;;;;;;;33.03;24.80;;;;;;;8.43;76.36;95586.72;5136855;27;20198;-70
2022/11/09 06:16:22;;;;;;;34.22;24.48;;;;;;;8.49;76.20;95581.03;5135732;27;20202;-71
2022/11/09 06:18:52;;;;;;;35.75;24.80;;;;;;;8.54;76.56;95580.88;5135796;27;20217;-70
2022/11/09 06:21:20;;;;;;;34.10;24.42;;;;;;;8.57;76.39;95588.47;5136403;27;20187;-70
2022/11/09 06:23:49;;;;;;;34.75;24.42;;;;;;;8.61;76.54;95593.00;5135641;27;20553;-70
2022/11/09 06:26:23;;;;;;;31.15;25.17;;;;;;;8.66;77.02;95586.50;5136586;27;20183;-70
2022/11/09 06:28:54;;;;;;;30.95;23.98;;;;;;;8.70;77.07;95584.72;5137110;27;20650;-70
2022/11/09 06:31:23;;;;;;;29.38;24.95;;;;;;;8.74;77.30;95588.41;5135818;27;20293;-70
2022/11/09 06:33:52;;;;;;;30.80;24.15;;;;;;;8.75;77.51;95583.72;5135248;27;20199;-70
2022/11/09 06:36:21;;;;;;;30.17;23.10;;;;;;;8.80;77.44;95581.59;5135163;27;20642;-70
2022/11/09 06:38:51;;;;;;;28.92;23.25;;;;;;;8.85;77.60;95583.38;5135428;27;20565;-70
2022/11/09 06:41:24;;;;;;;28.17;23.35;;;;;;;8.85;77.74;95580.63;5135725;27;20234;-70
2022/11/09 06:43:51;;;;;;;33.35;23.67;;;;;;;8.88;77.83;95588.22;5136321;27;20183;-70
2022/11/09 06:46:19;;;;;;;29.83;23.98;;;;;;;8.94;77.75;95586.91;5135423;27;20203;-70
2022/11/09 06:48:47;;;;;;;27.60;23.90;;;;;;;9.03;77.91;95593.16;5135227;27;20622;-70
2022/11/09 06:51:15;;;;;;;30.13;24.65;;;;;;;9.10;77.88;95587.16;5135601;28;20209;-70
2022/11/09 06:53:44;;;;;;;26.50;23.15;;;;;;;9.14;77.77;95588.91;5136316;27;20206;-70
2022/11/09 06:56:15;;;;;;;28.85;23.63;;;;;;;9.24;77.55;95593.25;5135254;28;20573;-70
2022/11/09 06:58:45;;;;;;;27.55;23.60;;;;;;;9.35;77.57;95586.22;5135177;28;20194;-71
2022/11/09 07:01:15;;;;;;;28.25;23.02;;;;;;;9.43;77.88;95590.06;5135577;28;20592;-71
2022/11/09 07:03:44;;;;;;;30.95;24.08;;;;;;;9.51;77.88;95580.13;5135553;28;20195;-71
2022/11/09 07:06:13;;;;;;;28.38;23.48;;;;;;;9.58;77.97;95578.44;5135394;28;20195;-71
2022/11/09 07:08:41;;;;;;;31.60;25.10;;;;;;;9.67;77.71;95581.16;5136289;27;20237;-71
2022/11/09 07:11:11;;;;;;;30.80;25.23;;;;;;;9.76;78.05;95583.84;5134878;28;20262;-70
2022/11/09 07:13:39;;;;;;;31.80;26.13;;;;;;;9.81;77.96;95589.97;5136160;27;20194;-70
2022/11/09 07:16:10;;;;;;;30.08;24.95;;;;;;;9.90;78.50;95578.88;5135356;28;20194;-71
2022/11/09 07:18:39;;;;;;;30.85;25.85;;;;;;;9.99;78.84;95578.84;5135005;28;20195;-71
2022/11/09 07:21:08;;;;;;;31.42;26.15;;;;;;;10.05;79.21;95578.25;5139962;27;20183;-70
2022/11/09 07:23:36;;;;;;;31.63;26.58;;;;;;;10.13;80.16;95574.66;5138830;27;20191;-70
2022/11/09 07:26:05;;;;;;;31.63;26.02;;;;;;;10.21;80.24;95581.22;5139003;27;20195;-71
2022/11/09 07:28:33;;;;;;;32.53;26.08;;;;;;;10.29;80.43;95580.38;5139159;27;20310;-71
2022/11/09 07:31:01;;;;;;;32.53;26.13;;;;;;;10.37;80.84;95589.69;5140108;27;20191;-70
2022/11/09 07:33:32;;;;;;;32.10;26.25;;;;;;;10.44;80.25;95581.69;5139486;27;20213;-70
2022/11/09 07:36:01;;;;;;;32.17;26.48;;;;;;;10.51;80.11;95576.41;5139103;27;20202;-70
2022/11/09 07:38:31;;;;;;;35.58;26.88;;;;;;;10.59;79.91;95577.47;5138860;27;20211;-70
2022/11/09 07:41:00;;;;;;;32.72;28.48;;;;;;;10.67;79.38;95578.53;5138346;27;20230;-71
2022/11/09 07:43:29;;;;;;;33.70;27.65;;;;;;;10.74;79.22;95579.56;5138752;27;20611;-71
2022/11/09 07:45:58;;;;;;;35.60;30.65;;;;;;;10.83;79.11;95572.03;5138812;27;20215;-70
2022/11/09 07:48:28;;;;;;;32.20;28.65;;;;;;;10.92;78.69;95585.72;5138791;27;20211;-70
2022/11/09 07:51:01;;;;;;;36.40;29.02;;;;;;;11.00;78.40;95572.94;5138493;27;20227;-70
2022/11/09 07:53:30;;;;;;;34.20;28.77;;;;;;;11.07;78.34;95578.72;5138550;27;20199;-71
2022/11/09 07:55:58;;;;;;;33.28;29.48;;;;;;;11.19;78.28;95580.69;5139435;27;20191;-70
2022/11/09 07:58:28;;;;;;;33.17;29.35;;;;;;;11.26;77.86;95580.94;5139424;27;20191;-70
2022/11/09 08:00:55;;;;;;;36.20;30.25;;;;;;;11.38;77.95;95585.63;5138315;27;20191;-70
2022/11/09 08:03:27;;;;;;;39.15;31.75;;;;;;;11.47;77.63;95580.78;5138731;27;20198;-70
2022/11/09 08:05:58;;;;;;;38.97;32.00;;;;;;;11.59;77.01;95583.56;5139250;27;20189;-71
2022/11/09 08:08:27;;;;;;;34.75;29.48;;;;;;;11.72;76.93;95585.13;5139226;27;20211;-71
2022/11/09 08:10:57;;;;;;;35.65;28.13;;;;;;;11.82;76.81;95576.38;5138684;27;20187;-71
2022/11/09 08:13:26;;;;;;;29.65;24.88;;;;;;;11.91;75.56;95572.69;5138748;27;20247;-70
2022/11/09 08:15:53;;;;;;;29.73;25.17;;;;;;;11.92;74.89;95569.59;5138941;27;20614;-70
2022/11/09 08:18:22;;;;;;;31.05;26.02;;;;;;;11.99;75.05;95575.34;5138117;27;20199;-70
2022/11/09 08:20:51;;;;;;;31.90;26.02;;;;;;;12.09;75.31;95576.81;5137982;27;20198;-70
2022/11/09 08:23:21;;;;;;;30.50;25.48;;;;;;;12.23;74.65;95574.44;5138205;27;20195;-71
2022/11/09 08:25:49;;;;;;;28.13;24.50;;;;;;;12.34;74.49;95576.72;5137662;27;20207;-70
2022/11/09 08:28:20;;;;;;;33.55;27.38;;;;;;;12.47;73.53;95568.03;5138086;27;20227;-70
2022/11/09 08:30:48;;;;;;;32.33;26.55;;;;;;;12.59;72.82;95575.44;5137030;27;20290;-70
2022/11/09 08:33:16;;;;;;;31.33;27.88;;;;;;;12.63;71.79;95570.81;5136926;27;20207;-70
2022/11/09 08:35:44;;;;;;;32.15;27.50;;;;;;;12.66;70.88;95572.88;5137951;27;20202;-70
2022/11/09 08:38:12;;;;;;;30.45;26.55;;;;;;;12.69;70.47;95577.72;5137331;27;20202;-70
2022/11/09 08:40:40;;;;;;;36.08;28.25;;;;;;;12.71;70.39;95572.63;5138251;27;20279;-71
2022/11/09 08:43:11;;;;;;;30.70;26.80;;;;;;;12.83;71.23;95570.97;5137620;27;20255;-70
2022/11/09 08:45:40;;;;;;;33.88;27.02;;;;;;;12.95;69.69;95571.66;5137826;27;20206;-70
2022/11/09 08:48:09;;;;;;;37.85;31.33;;;;;;;12.99;69.34;95569.00;5137324;27;20214;-70
2022/11/09 08:50:37;;;;;;;35.92;30.67;;;;;;;13.04;68.82;95579.03;5137235;27;20210;-70
2022/11/09 08:53:06;;;;;;;38.42;30.55;;;;;;;13.11;69.12;95571.69;5137288;27;20199;-70
2022/11/09 08:55:35;;;;;;;36.28;30.10;;;;;;;13.24;69.38;95562.16;5137454;27;20517;-70
2022/11/09 08:58:05;;;;;;;36.88;29.83;;;;;;;13.39;68.93;95566.06;5138304;27;20194;-70
2022/11/09 09:00:32;;;;;;;37.72;29.15;;;;;;;13.44;68.30;95562.25;5136892;27;20202;-70
2022/11/09 09:03:04;;;;;;;36.30;29.25;;;;;;;13.52;67.02;95572.31;5137243;27;20195;-70
2022/11/09 09:05:33;;;;;;;34.15;27.80;;;;;;;13.58;67.10;95575.63;5137982;27;20236;-70
2022/11/09 09:08:03;;;;;;;31.58;27.20;;;;;;;13.65;67.30;95573.84;5137368;27;20230;-70
2022/11/09 09:10:34;;;;;;;32.25;25.40;;;;;;;13.81;66.41;95570.22;5137196;27;20196;-70
2022/11/09 09:13:10;;;;;;;35.45;27.38;;;;;;;13.92;65.22;95565.72;5137926;27;20199;-70
2022/11/09 09:15:38;;;;;;;31.52;25.98;;;;;;;14.01;65.34;95569.06;5137319;27;20289;-71
2022/11/09 09:18:06;;;;;;;26.67;23.63;;;;;;;14.09;64.97;95564.47;5136838;27;20237;-71
2022/11/09 09:20:35;;;;;;;29.70;24.52;;;;;;;14.14;64.29;95564.22;5138096;27;20202;-71
2022/11/09 09:23:03;;;;;;;29.95;24.63;;;;;;;14.21;64.60;95562.38;5136873;27;20207;-70
2022/11/09 09:25:32;;;;;;;27.35;24.45;;;;;;;14.26;63.67;95566.84;5136999;27;20198;-70
2022/11/09 09:28:00;;;;;;;28.95;24.23;;;;;;;14.25;63.50;95564.44;5136528;27;20634;-70
2022/11/09 09:30:33;;;;;;;30.33;25.08;;;;;;;14.31;63.10;95554.66;5136257;27;20614;-70
2022/11/09 09:33:04;;;;;;;29.75;24.75;;;;;;;14.34;62.38;95562.22;5137462;27;20194;-70
2022/11/09 09:35:32;;;;;;;28.45;24.77;;;;;;;14.39;63.06;95551.66;5136628;27;20205;-70
2022/11/09 09:38:00;;;;;;;32.78;25.73;;;;;;;14.45;62.60;95552.16;5137475;27;20198;-70
2022/11/09 09:40:33;;;;;;;29.98;24.60;;;;;;;14.49;62.30;95543.91;5137404;27;20250;-71
2022/11/09 09:43:01;;;;;;;32.15;25.27;;;;;;;14.56;62.70;95542.13;5136404;27;20183;-71
2022/11/09 09:45:33;;;;;;;30.90;25.60;;;;;;;14.62;62.53;95548.16;5136701;27;20205;-70
2022/11/09 09:48:06;;;;;;;31.33;25.23;;;;;;;14.68;62.23;95541.94;5137301;27;20193;-70
2022/11/09 09:50:37;;;;;;;30.45;25.63;;;;;;;14.74;62.33;95536.88;5136379;27;20199;-70
2022/11/09 09:53:14;;;;;;;30.25;25.40;;;;;;;14.84;61.43;95541.03;5136834;27;20211;-71
2022/11/09 09:55:56;;;;;;;33.67;26.15;;;;;;;14.78;61.34;95531.38;5136787;27;20180;-71
2022/11/09 09:58:26;;;;;;;28.65;24.40;;;;;;;14.84;61.55;95524.38;5137141;27;20191;-71
2022/11/09 10:01:02;;;;;;;27.70;22.55;;;;;;;14.91;61.03;95527.28;5135741;27;20191;-71
2022/11/09 10:03:30;;;;;;;30.17;22.98;;;;;;;14.97;60.26;95528.59;5136325;27;20183;-71
2022/11/09 10:06:09;;;;;;;26.40;23.15;;;;;;;15.06;60.03;95523.56;5136098;27;20195;-71
2022/11/09 10:08:44;;;;;;;28.75;24.13;;;;;;;15.16;59.86;95524.94;5136016;27;20223;-70
2022/11/09 10:11:20;;;;;;;27.35;23.05;;;;;;;15.16;59.32;95525.72;5135815;27;20190;-70
2022/11/09 10:14:10;;;;;;;26.52;23.58;;;;;;;15.21;59.01;95519.06;5135804;27;20626;-70
2022/11/09 10:16:49;;;;;;;29.80;23.83;;;;;;;15.28;59.53;95518.38;5115382;27;20205;-71
2022/11/09 10:19:39;;;;;;;29.90;24.40;;;;;;;15.28;58.61;95508.06;5135505;27;20183;-71
2022/11/09 10:22:15;;;;;;;29.75;24.70;;;;;;;15.27;58.21;95514.00;5136434;27;20578;-70
2022/11/09 10:24:50;;;;;;;31.92;26.10;;;;;;;15.30;58.60;95508.50;5135570;27;20209;-70
2022/11/09 10:27:45;;;;;;;28.75;24.40;;;;;;;15.35;58.37;95507.38;5135818;27;20222;-71
2022/11/09 10:30:15;;;;;;;31.50;24.85;;;;;;;15.35;58.29;95505.38;5135596;27;20226;-71
2022/11/09 10:32:47;;;;;;;30.13;24.63;;;;;;;15.39;58.38;95503.47;5136452;27;20209;-71
2022/11/09 10:35:19;;;;;;;30.23;24.33;;;;;;;15.40;57.73;95502.31;5136424;27;20194;-71
2022/11/09 10:37:49;;;;;;;29.17;23.80;;;;;;;15.45;57.14;95498.41;5136140;27;20190;-71
2022/11/09 10:40:21;;;;;;;27.17;23.23;;;;;;;15.40;57.79;95498.72;5136348;27;20317;-71
2022/11/09 10:42:54;;;;;;;28.58;23.90;;;;;;;15.46;57.36;95497.22;5136293;27;20195;-71
2022/11/09 10:45:29;;;;;;;26.50;23.08;;;;;;;15.49;57.90;95488.13;5135562;27;20202;-71
2022/11/09 10:47:59;;;;;;;34.05;27.65;;;;;;;15.54;58.07;95485.06;5135743;27;20198;-71
2022/11/09 10:50:30;;;;;;;39.25;27.60;;;;;;;15.49;58.30;95488.13;5135978;27;20647;-71
2022/11/09 10:53:16;;;;;;;33.92;26.33;;;;;;;15.51;58.17;95476.66;5135323;28;20199;-71
2022/11/09 10:55:53;;;;;;;34.50;27.60;;;;;;;15.56;59.28;95479.91;5141758;27;20247;-71
2022/11/09 10:58:40;;;;;;;34.13;27.13;;;;;;;15.66;58.59;95469.34;5142172;27;20289;-70
2022/11/09 11:01:13;;;;;;;34.50;27.83;;;;;;;15.74;58.20;95465.47;5142398;27;20213;-70
2022/11/09 11:03:44;;;;;;;35.08;27.50;;;;;;;15.74;58.07;95468.25;5141898;27;20536;-70
2022/11/09 11:06:17;;;;;;;34.25;26.67;;;;;;;15.77;57.18;95462.75;5141917;27;20194;-70
2022/11/09 11:08:46;;;;;;;33.90;26.73;;;;;;;15.77;57.33;95462.75;5141824;27;20206;-70
2022/11/09 11:11:32;;;;;;;31.73;25.60;;;;;;;15.76;57.02;95458.38;5142055;27;20205;-70
2022/11/09 11:14:17;;;;;;;33.88;25.95;;;;;;;15.71;57.41;95460.66;5141982;27;20209;-70
2022/11/09 11:16:47;;;;;;;34.42;25.90;;;;;;;15.62;57.24;95469.28;5141616;27;20286;-70
2022/11/09 11:19:36;;;;;;;33.17;25.73;;;;;;;15.57;57.65;95459.25;5142291;27;20203;-71
2022/11/09 11:22:21;;;;;;;30.85;24.05;;;;;;;15.60;58.07;95452.94;5142009;27;20231;-71
2022/11/09 11:25:13;;;;;;;31.45;25.10;;;;;;;15.63;57.19;95456.97;5142512;27;20191;-71
2022/11/09 11:27:46;;;;;;;33.35;25.77;;;;;;;15.59;57.26;95447.78;5141950;27;20198;-71
2022/11/09 11:30:17;;;;;;;23.38;20.10;;;;;;;15.66;58.19;95438.75;5142891;27;20211;-71
2022/11/09 11:32:46;;;;;;;25.25;20.75;;;;;;;15.74;58.66;95446.81;5142820;27;20198;-71
2022/11/09 11:35:16;;;;;;;24.73;19.73;;;;;;;15.80;58.81;95441.75;5142757;27;20298;-71